Time;durP1;ratioP1;P1;durP2;ratioP2;P2;SDS_P1;SDS_P2;PMS_P1;PMS_P2;Temp;Humidity;BMP_temperature;BMP_pressure;BME280_temperature;BME280_humidity;BME280_pressure;Samples;Min_cycle;Max_cycle;Signal;HPM_P1;HPM_P2
2023/04/29 00:00:38;;;;;;;66.00;29.73;;;;;;;11.50;100.00;101058.19;5005549;28;20084;-73
2023/04/29 00:03:03;;;;;;;67.38;31.90;;;;;;;11.36;100.00;101061.38;5004086;28;20049;-72
2023/04/29 00:05:29;;;;;;;76.75;34.92;;;;;;;11.37;100.00;101068.19;5003551;28;20064;-72
2023/04/29 00:07:54;;;;;;;70.47;33.53;;;;;;;11.41;100.00;101064.31;5001332;28;20041;-73
2023/04/29 00:10:20;;;;;;;80.15;36.05;;;;;;;11.40;100.00;101069.69;4999772;28;20029;-72
2023/04/29 00:12:45;;;;;;;76.15;35.17;;;;;;;11.29;100.00;101068.97;5003675;28;20037;-72
2023/04/29 00:15:11;;;;;;;74.78;35.53;;;;;;;11.24;100.00;101065.19;5004225;28;20518;-72
2023/04/29 00:17:37;;;;;;;75.70;35.65;;;;;;;11.28;100.00;101066.50;5017985;28;20030;-72
2023/04/29 00:20:03;;;;;;;72.18;34.22;;;;;;;11.18;100.00;101074.41;5004853;28;20053;-73
2023/04/29 00:22:28;;;;;;;81.70;35.92;;;;;;;11.27;100.00;101070.09;5004049;28;20034;-72
2023/04/29 00:24:54;;;;;;;80.28;36.30;;;;;;;11.29;100.00;101076.75;5001934;28;20060;-73
2023/04/29 00:27:19;;;;;;;76.22;35.63;;;;;;;11.24;100.00;101073.78;4999826;28;20062;-73
2023/04/29 00:29:46;;;;;;;74.32;34.97;;;;;;;11.16;100.00;101080.72;5002163;28;20439;-72
2023/04/29 00:32:11;;;;;;;66.40;34.20;;;;;;;11.17;100.00;101082.34;4983214;28;20037;-70
2023/04/29 00:34:36;;;;;;;79.30;36.33;;;;;;;11.08;100.00;101087.50;5000214;28;20459;-70
2023/04/29 00:37:02;;;;;;;77.35;36.35;;;;;;;11.08;100.00;101090.09;4988007;28;20034;-70
2023/04/29 00:39:28;;;;;;;72.53;32.85;;;;;;;11.09;100.00;101088.31;5001862;28;20094;-71
2023/04/29 00:41:54;;;;;;;76.30;37.17;;;;;;;11.12;100.00;101095.78;5003950;28;20037;-69
2023/04/29 00:44:19;;;;;;;80.68;36.72;;;;;;;10.94;100.00;101103.59;5003240;28;20073;-70
2023/04/29 00:46:45;;;;;;;85.78;36.42;;;;;;;10.99;100.00;101105.75;5004255;28;20037;-70
2023/04/29 00:49:12;;;;;;;79.40;37.33;;;;;;;10.95;100.00;101107.84;5004838;28;20088;-71
2023/04/29 00:51:40;;;;;;;77.63;36.30;;;;;;;10.83;100.00;101106.44;5004601;28;20060;-69
2023/04/29 00:54:07;;;;;;;83.65;37.90;;;;;;;10.93;100.00;101108.97;5001172;28;20484;-70
2023/04/29 00:56:35;;;;;;;92.57;37.95;;;;;;;10.92;100.00;101108.13;5000318;28;20057;-70
2023/04/29 00:59:02;;;;;;;79.35;37.42;;;;;;;10.86;100.00;101111.31;5003957;28;20140;-69
2023/04/29 01:01:29;;;;;;;90.53;39.15;;;;;;;10.86;100.00;101106.13;5006014;28;20503;-70
2023/04/29 01:03:56;;;;;;;86.80;39.00;;;;;;;10.82;100.00;101110.00;5004501;28;20085;-70
2023/04/29 01:06:43;;;;;;;87.18;38.90;;;;;;;10.81;100.00;101114.38;5000622;28;20034;-70
2023/04/29 01:09:12;;;;;;;90.43;39.35;;;;;;;10.84;100.00;101114.06;4987011;28;20052;-70
2023/04/29 01:12:02;;;;;;;93.25;39.08;;;;;;;10.88;100.00;101115.38;5004580;28;20124;-70
2023/04/29 01:14:32;;;;;;;91.35;41.03;;;;;;;10.85;100.00;101117.47;5002773;28;20034;-71
2023/04/29 01:17:08;;;;;;;100.38;43.22;;;;;;;10.69;100.00;101123.34;5005270;28;20099;-70
2023/04/29 01:19:51;;;;;;;96.80;41.15;;;;;;;10.73;100.00;101121.28;5020160;28;20089;-70
2023/04/29 01:22:20;;;;;;;92.55;39.65;;;;;;;10.67;100.00;101123.50;5016705;28;20030;-70
2023/04/29 01:24:47;;;;;;;93.43;40.13;;;;;;;10.70;100.00;101122.41;5010208;28;20096;-69
2023/04/29 01:27:30;;;;;;;102.97;40.67;;;;;;;10.67;100.00;101120.91;5003876;28;20077;-69
2023/04/29 01:30:20;;;;;;;106.13;42.20;;;;;;;10.55;100.00;101129.88;5016564;28;20077;-70
2023/04/29 01:33:08;;;;;;;99.25;41.47;;;;;;;10.54;100.00;101123.03;4995631;28;20156;-70
2023/04/29 01:35:47;;;;;;;100.03;43.03;;;;;;;10.60;100.00;101127.63;4996568;28;20385;-70
2023/04/29 01:38:41;;;;;;;104.45;42.92;;;;;;;10.58;100.00;101133.94;4981227;28;20038;-70
2023/04/29 01:41:15;;;;;;;98.70;42.50;;;;;;;10.53;100.00;101137.00;5001119;28;20124;-70
2023/04/29 01:43:45;;;;;;;115.18;43.10;;;;;;;10.40;100.00;101142.53;5005484;28;20041;-70
2023/04/29 01:46:18;;;;;;;114.80;42.90;;;;;;;10.43;100.00;101141.41;5003672;28;20055;-70
2023/04/29 01:48:45;;;;;;;96.80;38.35;;;;;;;10.44;100.00;101148.25;4999246;28;20496;-70
2023/04/29 01:51:11;;;;;;;112.18;39.83;;;;;;;10.50;100.00;101150.25;5005200;28;20116;-71
2023/04/29 01:53:39;;;;;;;101.95;38.78;;;;;;;10.43;100.00;101154.38;5003162;28;20435;-70
2023/04/29 01:56:06;;;;;;;97.55;37.95;;;;;;;10.37;100.00;101153.19;5005558;28;20030;-70
2023/04/29 01:58:55;;;;;;;105.90;38.28;;;;;;;10.32;100.00;101150.19;5003098;28;20034;-70
2023/04/29 02:01:40;;;;;;;106.30;39.47;;;;;;;10.29;100.00;101155.66;5003104;28;20049;-70
2023/04/29 02:04:06;;;;;;;101.53;38.00;;;;;;;10.19;100.00;101155.72;4988058;28;20049;-70
2023/04/29 02:06:32;;;;;;;104.63;38.70;;;;;;;10.16;100.00;101165.56;5003423;28;20091;-69
2023/04/29 02:09:01;;;;;;;101.78;38.28;;;;;;;9.99;100.00;101160.16;5004287;28;20034;-71
2023/04/29 02:11:26;;;;;;;115.20;39.67;;;;;;;10.00;100.00;101169.59;5004229;28;20044;-70
2023/04/29 02:13:55;;;;;;;102.15;37.00;;;;;;;10.01;100.00;101173.00;5003063;28;20060;-70
2023/04/29 02:16:21;;;;;;;110.10;39.08;;;;;;;9.99;100.00;101172.31;5001190;28;20022;-71
2023/04/29 02:18:52;;;;;;;107.15;38.28;;;;;;;10.05;100.00;101176.91;5004292;28;20041;-70
2023/04/29 02:21:19;;;;;;;102.97;38.30;;;;;;;10.03;100.00;101169.28;5003320;28;20069;-70
2023/04/29 02:23:45;;;;;;;95.70;36.20;;;;;;;10.09;100.00;101180.84;5018288;28;20081;-70
2023/04/29 02:26:10;;;;;;;85.45;33.55;;;;;;;10.09;100.00;101173.06;4990522;28;20028;-70
2023/04/29 02:28:36;;;;;;;94.38;34.40;;;;;;;10.05;100.00;101176.91;5016510;28;20112;-70
2023/04/29 02:31:03;;;;;;;77.47;30.77;;;;;;;9.94;100.00;101185.69;5002386;28;20042;-71
2023/04/29 02:33:29;;;;;;;76.93;29.70;;;;;;;9.88;100.00;101184.47;5002955;28;20099;-70
2023/04/29 02:35:55;;;;;;;76.00;31.17;;;;;;;9.75;100.00;101186.56;5002017;28;20030;-70
2023/04/29 02:38:21;;;;;;;83.00;32.00;;;;;;;9.78;100.00;101186.28;4982944;28;20081;-70
2023/04/29 02:40:47;;;;;;;76.38;28.92;;;;;;;9.87;100.00;101194.97;5000581;28;20396;-71
2023/04/29 02:43:13;;;;;;;76.70;29.15;;;;;;;9.85;100.00;101194.28;4982769;28;20045;-71
2023/04/29 02:45:39;;;;;;;66.22;27.35;;;;;;;9.88;100.00;101197.44;4983256;28;20034;-70
2023/04/29 02:48:05;;;;;;;75.20;30.20;;;;;;;9.83;100.00;101204.81;4998681;28;20046;-70
2023/04/29 02:50:31;;;;;;;80.72;29.25;;;;;;;9.70;100.00;101201.69;5002036;28;20041;-70
2023/04/29 02:52:58;;;;;;;75.70;30.23;;;;;;;9.69;100.00;101205.25;4999944;28;20033;-70
2023/04/29 02:55:23;;;;;;;77.75;29.92;;;;;;;9.64;100.00;101212.63;5001237;28;20030;-70
2023/04/29 02:57:49;;;;;;;78.68;30.23;;;;;;;9.64;100.00;101218.59;5001039;28;20033;-70
2023/04/29 03:00:14;;;;;;;78.55;29.67;;;;;;;9.58;100.00;101219.19;4997855;28;20504;-71
2023/04/29 03:02:40;;;;;;;74.63;31.08;;;;;;;9.56;100.00;101221.09;5001039;28;20045;-70
2023/04/29 03:05:06;;;;;;;76.82;29.95;;;;;;;9.49;100.00;101223.44;5014475;28;20096;-70
2023/04/29 03:07:31;;;;;;;68.10;27.50;;;;;;;9.59;100.00;101226.00;5003403;28;20040;-70
2023/04/29 03:09:58;;;;;;;68.60;27.75;;;;;;;9.65;100.00;101228.03;5003035;28;20046;-70
2023/04/29 03:12:23;;;;;;;75.97;29.35;;;;;;;9.55;100.00;101230.63;5022331;28;20042;-70
2023/04/29 03:14:50;;;;;;;82.97;31.58;;;;;;;9.48;100.00;101233.91;5007940;28;20602;-70
2023/04/29 03:17:16;;;;;;;81.82;32.33;;;;;;;9.60;100.00;101235.38;5004208;28;20022;-70
2023/04/29 03:19:42;;;;;;;74.57;31.02;;;;;;;9.65;100.00;101235.78;5021573;28;20049;-70
2023/04/29 03:22:10;;;;;;;76.28;30.80;;;;;;;9.57;100.00;101240.03;4989495;28;20034;-70
2023/04/29 03:24:37;;;;;;;77.75;29.30;;;;;;;9.52;100.00;101245.63;5021050;28;20040;-70
2023/04/29 03:27:03;;;;;;;73.10;28.98;;;;;;;9.56;100.00;101239.22;5007307;28;20480;-70
2023/04/29 03:29:29;;;;;;;81.05;30.52;;;;;;;9.57;100.00;101245.19;5003818;28;20057;-70
2023/04/29 03:31:56;;;;;;;76.30;31.02;;;;;;;9.55;100.00;101248.75;5002926;28;20492;-70
2023/04/29 03:34:22;;;;;;;78.78;30.30;;;;;;;9.53;100.00;101253.25;5020522;28;20488;-70
2023/04/29 03:36:58;;;;;;;80.80;30.27;;;;;;;9.42;100.00;101244.81;4990743;28;20034;-70
2023/04/29 03:39:23;;;;;;;78.50;30.98;;;;;;;9.49;100.00;101244.16;5003779;28;20057;-69
2023/04/29 03:41:49;;;;;;;80.07;29.88;;;;;;;9.43;100.00;101244.66;5004331;28;20096;-70
2023/04/29 03:44:15;;;;;;;75.32;29.85;;;;;;;9.49;100.00;101258.84;5003181;28;20061;-70
2023/04/29 03:46:40;;;;;;;78.25;31.42;;;;;;;9.50;100.00;101250.13;5004292;28;22094;-70
2023/04/29 03:49:06;;;;;;;73.18;30.20;;;;;;;9.52;100.00;101250.81;5003279;28;20122;-70
2023/04/29 03:51:32;;;;;;;68.13;28.98;;;;;;;9.47;100.00;101256.38;4990424;28;20037;-70
2023/04/29 03:54:08;;;;;;;73.53;29.77;;;;;;;9.38;100.00;101258.97;5000748;28;20071;-70
2023/04/29 03:56:35;;;;;;;72.07;29.38;;;;;;;9.42;100.00;101253.41;5005562;28;20103;-70
2023/04/29 03:59:00;;;;;;;70.53;29.90;;;;;;;9.43;100.00;101261.97;5004962;28;20041;-70
2023/04/29 04:01:26;;;;;;;71.20;29.17;;;;;;;9.33;100.00;101254.22;5020966;28;20025;-69
2023/04/29 04:03:52;;;;;;;70.25;28.30;;;;;;;9.35;100.00;101260.06;5002654;28;20416;-70
2023/04/29 04:06:17;;;;;;;68.55;28.13;;;;;;;9.37;100.00;101255.59;5004668;28;20052;-70
2023/04/29 04:08:43;;;;;;;57.85;25.33;;;;;;;9.33;100.00;101260.22;4988918;28;20559;-70
2023/04/29 04:11:16;;;;;;;59.75;25.40;;;;;;;9.28;100.00;101270.16;5001045;28;20021;-70
2023/04/29 04:13:45;;;;;;;55.50;23.88;;;;;;;9.35;100.00;101273.03;4988983;28;20033;-69
2023/04/29 04:16:11;;;;;;;51.38;21.98;;;;;;;9.38;100.00;101274.50;5021138;28;20446;-70
2023/04/29 04:18:37;;;;;;;56.08;24.67;;;;;;;9.36;100.00;101274.63;4998705;28;20046;-70
2023/04/29 04:21:10;;;;;;;50.53;22.42;;;;;;;9.22;100.00;101277.66;5000842;28;20125;-70
2023/04/29 04:23:41;;;;;;;54.67;22.75;;;;;;;9.21;100.00;101281.19;5018482;28;20516;-70
2023/04/29 04:26:09;;;;;;;47.72;21.35;;;;;;;9.13;100.00;101274.91;5005347;28;20030;-69
2023/04/29 04:29:00;;;;;;;48.85;21.02;;;;;;;9.22;100.00;101288.00;5002806;28;20045;-70
2023/04/29 04:31:43;;;;;;;50.13;21.85;;;;;;;9.21;100.00;101284.59;5003887;28;20052;-70
2023/04/29 04:34:09;;;;;;;49.67;21.67;;;;;;;9.23;100.00;101294.78;5005292;28;20045;-70
2023/04/29 04:36:35;;;;;;;48.85;20.38;;;;;;;9.18;100.00;101294.41;4986977;28;20025;-70
2023/04/29 04:39:01;;;;;;;44.08;19.98;;;;;;;9.18;100.00;101292.63;5003976;28;20045;-70
2023/04/29 04:41:26;;;;;;;47.95;20.13;;;;;;;9.20;100.00;101297.66;5005001;28;20041;-70
2023/04/29 04:43:52;;;;;;;53.65;21.00;;;;;;;9.16;100.00;101303.09;4989357;28;20040;-70
2023/04/29 04:46:29;;;;;;;45.60;19.67;;;;;;;9.24;100.00;101304.19;5003799;28;20022;-69
2023/04/29 04:49:17;;;;;;;41.80;19.33;;;;;;;9.16;100.00;101303.09;5004607;28;20082;-70
2023/04/29 04:51:50;;;;;;;43.58;20.05;;;;;;;9.12;100.00;101312.09;5004729;28;20041;-70
2023/04/29 04:54:16;;;;;;;47.40;22.20;;;;;;;9.17;100.00;101314.25;5004948;28;20064;-70
2023/04/29 04:56:41;;;;;;;49.25;22.35;;;;;;;9.22;100.00;101316.47;5001463;28;20041;-70
2023/04/29 04:59:08;;;;;;;51.85;21.58;;;;;;;9.30;100.00;101317.41;5003723;28;20049;-70
2023/04/29 05:01:36;;;;;;;49.60;22.67;;;;;;;9.33;100.00;101324.91;5001494;28;20032;-70
2023/04/29 05:04:02;;;;;;;53.72;22.95;;;;;;;9.20;100.00;101333.91;5003226;28;20038;-69
2023/04/29 05:06:28;;;;;;;49.50;21.80;;;;;;;9.10;100.00;101331.28;5004616;28;20120;-70
2023/04/29 05:08:54;;;;;;;50.70;23.60;;;;;;;9.16;100.00;101334.16;5002093;28;20416;-70
2023/04/29 05:11:20;;;;;;;51.38;22.08;;;;;;;9.26;100.00;101344.50;4988268;28;20061;-70
2023/04/29 05:14:00;;;;;;;49.92;23.38;;;;;;;9.26;100.00;101341.91;5004525;28;20069;-70
2023/04/29 05:16:26;;;;;;;53.15;23.30;;;;;;;9.30;100.00;101340.69;4986708;28;20033;-70
2023/04/29 05:18:53;;;;;;;54.33;23.92;;;;;;;9.28;100.00;101347.78;5020171;28;20038;-70
2023/04/29 05:21:18;;;;;;;54.17;22.27;;;;;;;9.28;100.00;101350.38;4988327;28;20036;-70
2023/04/29 05:23:44;;;;;;;46.95;21.90;;;;;;;9.35;100.00;101350.66;4999504;28;20033;-70
2023/04/29 05:26:11;;;;;;;51.20;22.45;;;;;;;9.33;100.00;101349.97;5004424;28;20042;-70
2023/04/29 05:28:36;;;;;;;49.88;21.70;;;;;;;9.34;100.00;101359.38;5003129;28;20057;-70
2023/04/29 05:31:03;;;;;;;48.60;21.30;;;;;;;9.25;100.00;101362.75;5002158;28;20065;-70
2023/04/29 05:33:29;;;;;;;49.88;22.60;;;;;;;9.20;100.00;101357.19;5000903;28;20091;-70
2023/04/29 05:35:55;;;;;;;51.28;21.98;;;;;;;9.31;100.00;101357.06;4984398;28;20050;-70
2023/04/29 05:38:20;;;;;;;49.53;22.65;;;;;;;9.33;100.00;101363.72;4985068;28;20045;-70
2023/04/29 05:40:52;;;;;;;45.50;20.92;;;;;;;9.30;100.00;101365.78;5018522;28;20542;-70
2023/04/29 05:43:18;;;;;;;48.42;23.20;;;;;;;9.34;100.00;101360.22;5003680;28;20045;-69
2023/04/29 05:45:46;;;;;;;49.42;23.08;;;;;;;9.36;100.00;101365.22;5003416;28;20550;-70
2023/04/29 05:48:11;;;;;;;54.33;22.13;;;;;;;9.42;100.00;101369.88;5001204;28;20042;-70
2023/04/29 05:50:36;;;;;;;50.13;20.52;;;;;;;9.46;100.00;101376.44;5004101;28;20041;-69
2023/04/29 05:53:03;;;;;;;44.60;20.40;;;;;;;9.34;100.00;101373.16;5003028;28;20025;-70
2023/04/29 05:55:29;;;;;;;46.10;21.48;;;;;;;9.42;100.00;101375.06;4987583;28;20030;-70
2023/04/29 05:57:55;;;;;;;45.15;20.95;;;;;;;9.53;100.00;101385.28;5001076;28;20502;-70
2023/04/29 06:00:21;;;;;;;47.42;22.35;;;;;;;9.42;100.00;101390.59;5004722;28;20037;-70
2023/04/29 06:02:47;;;;;;;45.53;21.25;;;;;;;9.44;100.00;101393.88;4999853;28;20046;-70
2023/04/29 06:05:14;;;;;;;42.53;19.42;;;;;;;9.43;100.00;101399.97;4999767;28;20088;-70
2023/04/29 06:07:58;;;;;;;45.25;20.33;;;;;;;9.42;100.00;101410.47;5000147;28;20045;-70
2023/04/29 06:10:41;;;;;;;41.23;19.33;;;;;;;9.48;100.00;101407.38;4994483;28;20061;-69
2023/04/29 06:13:06;;;;;;;45.05;20.25;;;;;;;9.37;100.00;101415.25;5002882;28;20555;-70
2023/04/29 06:15:32;;;;;;;47.15;21.05;;;;;;;9.36;100.00;101411.81;5002897;28;20030;-70
2023/04/29 06:17:57;;;;;;;42.90;20.33;;;;;;;9.37;100.00;101423.00;4996413;28;20061;-70
2023/04/29 06:20:23;;;;;;;40.30;19.75;;;;;;;9.50;100.00;101429.56;5002053;28;20030;-70
2023/04/29 06:22:48;;;;;;;41.10;19.80;;;;;;;9.43;100.00;101428.47;4997530;28;20034;-69
2023/04/29 06:25:14;;;;;;;41.22;18.23;;;;;;;9.32;100.00;101431.16;5000958;28;20091;-70
2023/04/29 06:27:48;;;;;;;39.78;18.33;;;;;;;9.34;100.00;101435.28;4995367;28;20550;-70
2023/04/29 06:30:15;;;;;;;37.72;17.95;;;;;;;9.31;100.00;101439.88;5002743;28;20034;-69
2023/04/29 06:32:40;;;;;;;39.05;16.60;;;;;;;9.28;100.00;101430.59;5002046;28;20049;-72
2023/04/29 06:35:07;;;;;;;37.17;17.23;;;;;;;9.33;100.00;101436.19;5021208;28;20447;-72
2023/04/29 06:37:51;;;;;;;41.35;18.38;;;;;;;9.33;100.00;101450.91;5004054;28;20145;-72
2023/04/29 06:40:32;;;;;;;38.75;19.55;;;;;;;9.35;100.00;101447.25;5001851;28;20053;-72
2023/04/29 06:43:24;;;;;;;40.03;18.27;;;;;;;9.57;100.00;101447.16;4991417;28;20042;-72
2023/04/29 06:46:14;;;;;;;39.85;18.25;;;;;;;9.45;100.00;101452.44;5008265;28;20496;-73
2023/04/29 06:48:48;;;;;;;36.60;17.48;;;;;;;9.46;100.00;101455.88;5006552;28;20500;-72
2023/04/29 06:51:14;;;;;;;42.72;17.15;;;;;;;9.44;100.00;101463.75;5004073;28;20037;-72
2023/04/29 06:53:40;;;;;;;34.63;16.92;;;;;;;9.42;100.00;101462.22;5004306;28;20104;-72
2023/04/29 06:56:06;;;;;;;36.97;17.33;;;;;;;9.45;100.00;101470.56;5001435;28;20065;-73
2023/04/29 06:58:32;;;;;;;36.63;17.98;;;;;;;9.41;100.00;101464.00;5008564;28;20046;-73
2023/04/29 07:00:59;;;;;;;37.15;18.05;;;;;;;9.35;100.00;101470.53;5008295;28;20045;-72
2023/04/29 07:03:24;;;;;;;32.08;16.30;;;;;;;9.47;100.00;101465.25;5009535;28;20041;-72
2023/04/29 07:05:50;;;;;;;31.80;15.93;;;;;;;9.49;100.00;101468.53;4996051;28;20554;-73
2023/04/29 07:08:15;;;;;;;35.30;16.38;;;;;;;9.49;100.00;101477.13;5022303;28;20049;-73
2023/04/29 07:10:41;;;;;;;33.53;15.93;;;;;;;9.34;100.00;101473.25;5008134;28;20030;-73
2023/04/29 07:13:06;;;;;;;30.80;14.63;;;;;;;9.50;100.00;101481.34;5005137;28;20092;-73
2023/04/29 07:15:35;;;;;;;27.73;14.00;;;;;;;9.40;100.00;101487.44;5006299;28;20034;-73
2023/04/29 07:18:05;;;;;;;30.63;15.07;;;;;;;9.47;100.00;101489.38;5006458;28;20041;-72
2023/04/29 07:20:31;;;;;;;26.52;13.40;;;;;;;9.45;100.00;101487.88;5021648;28;20091;-72
2023/04/29 07:22:57;;;;;;;28.35;15.13;;;;;;;9.64;100.00;101490.50;5009827;28;20061;-72
2023/04/29 07:25:23;;;;;;;29.13;14.63;;;;;;;9.75;100.00;101494.75;5010303;28;20037;-73
2023/04/29 07:27:50;;;;;;;30.40;14.98;;;;;;;9.83;100.00;101499.25;5006023;28;20066;-72
2023/04/29 07:30:16;;;;;;;29.75;14.93;;;;;;;9.88;100.00;101510.06;5008699;28;20034;-72
2023/04/29 07:32:41;;;;;;;33.33;15.30;;;;;;;9.83;100.00;101507.03;5007762;28;20053;-72
2023/04/29 07:35:07;;;;;;;34.30;15.15;;;;;;;9.89;100.00;101509.13;5005533;28;20042;-73
2023/04/29 07:37:33;;;;;;;33.28;16.35;;;;;;;9.87;100.00;101511.00;5009403;28;20402;-73
2023/04/29 07:39:58;;;;;;;31.10;13.95;;;;;;;9.74;100.00;101514.66;4988778;28;20042;-73
2023/04/29 07:42:24;;;;;;;37.38;15.55;;;;;;;9.81;100.00;101512.34;5006643;28;20496;-73
2023/04/29 07:44:50;;;;;;;32.13;15.73;;;;;;;9.85;100.00;101515.50;5005882;28;20046;-73
2023/04/29 07:47:17;;;;;;;30.05;15.07;;;;;;;9.86;100.00;101520.53;5009435;28;20021;-73
2023/04/29 07:49:44;;;;;;;30.30;15.63;;;;;;;10.01;100.00;101520.97;5007490;28;20391;-73
2023/04/29 07:52:10;;;;;;;29.08;15.07;;;;;;;10.05;100.00;101529.31;4992495;28;20044;-73
2023/04/29 07:54:35;;;;;;;30.23;15.88;;;;;;;10.07;100.00;101525.59;5021018;28;20046;-72
2023/04/29 07:57:02;;;;;;;30.70;14.80;;;;;;;10.10;100.00;101524.53;5007449;28;20029;-72
2023/04/29 07:59:28;;;;;;;33.08;16.25;;;;;;;10.18;100.00;101529.06;5007130;28;20041;-72
2023/04/29 08:01:54;;;;;;;28.58;14.10;;;;;;;10.22;100.00;101530.41;4992996;28;20041;-73
2023/04/29 08:04:20;;;;;;;30.15;15.52;;;;;;;10.34;100.00;101534.56;5024691;28;20057;-73
2023/04/29 08:06:57;;;;;;;32.03;17.02;;;;;;;10.46;100.00;101532.63;5011814;28;20191;-74
2023/04/29 08:09:22;;;;;;;33.20;15.57;;;;;;;10.64;100.00;101528.38;5008001;28;20478;-72
2023/04/29 08:11:48;;;;;;;30.80;16.20;;;;;;;10.64;100.00;101532.72;4992746;28;20033;-72
2023/04/29 08:14:13;;;;;;;32.72;15.63;;;;;;;10.73;100.00;101531.91;5024243;28;20041;-73
2023/04/29 08:16:39;;;;;;;29.70;14.82;;;;;;;10.88;100.00;101540.06;5008419;28;20662;-72
2023/04/29 08:19:04;;;;;;;32.55;14.75;;;;;;;10.99;100.00;101539.91;5006476;28;20054;-72
2023/04/29 08:21:30;;;;;;;32.47;14.73;;;;;;;11.03;99.30;101538.66;5009976;28;20392;-72
2023/04/29 08:23:56;;;;;;;28.08;14.25;;;;;;;11.14;97.35;101542.06;4990144;28;20062;-73
2023/04/29 08:26:22;;;;;;;27.98;13.40;;;;;;;11.20;97.18;101539.72;4991466;28;20033;-72
2023/04/29 08:28:48;;;;;;;26.48;13.98;;;;;;;11.25;96.98;101540.13;5007409;28;20046;-73
2023/04/29 08:31:18;;;;;;;31.20;14.35;;;;;;;11.31;95.73;101538.72;5004519;28;20034;-73
2023/04/29 08:33:44;;;;;;;27.92;14.15;;;;;;;11.35;95.87;101542.66;5004499;28;20124;-73
2023/04/29 08:36:09;;;;;;;24.60;14.23;;;;;;;11.37;94.60;101550.31;5007342;28;20037;-72
2023/04/29 08:38:35;;;;;;;30.38;13.85;;;;;;;11.34;94.04;101545.41;5006206;28;20064;-73
2023/04/29 08:41:00;;;;;;;28.67;13.40;;;;;;;11.36;94.92;101551.25;5022067;28;20041;-72
2023/04/29 08:43:26;;;;;;;30.70;13.77;;;;;;;11.17;93.59;101560.78;5021998;28;20057;-73
2023/04/29 08:45:52;;;;;;;23.75;12.48;;;;;;;11.13;95.64;101556.00;5007354;28;20128;-73
2023/04/29 08:48:18;;;;;;;24.58;13.75;;;;;;;11.15;94.88;101564.44;5008508;28;20037;-73
2023/04/29 08:50:44;;;;;;;25.20;13.23;;;;;;;11.16;94.47;101559.13;5007505;28;20042;-72
2023/04/29 08:53:11;;;;;;;30.90;14.35;;;;;;;11.12;94.20;101568.16;4995962;28;20050;-72
2023/04/29 08:55:47;;;;;;;27.98;15.48;;;;;;;10.98;94.55;101572.03;5008872;28;20221;-72
2023/04/29 08:58:15;;;;;;;27.38;13.63;;;;;;;10.92;94.34;101582.94;5002187;28;20069;-72
2023/04/29 09:00:43;;;;;;;28.98;15.23;;;;;;;10.97;93.72;101579.94;5005096;28;20033;-72
2023/04/29 09:03:41;;;;;;;29.60;15.55;;;;;;;10.98;94.77;101586.75;5006035;28;20038;-72
2023/04/29 09:06:09;;;;;;;30.40;15.80;;;;;;;10.83;95.77;101579.44;5021237;28;20065;-73
2023/04/29 09:08:36;;;;;;;35.92;16.10;;;;;;;10.67;95.27;101587.75;5022253;28;20068;-72
2023/04/29 09:11:03;;;;;;;38.15;16.25;;;;;;;10.62;96.41;101584.75;4990654;28;20452;-72
2023/04/29 09:13:30;;;;;;;28.58;16.05;;;;;;;10.60;96.46;101594.44;5006529;28;20474;-72
2023/04/29 09:15:56;;;;;;;34.83;17.08;;;;;;;10.61;96.55;101590.91;4990764;28;20129;-72
2023/04/29 09:18:48;;;;;;;31.75;16.63;;;;;;;10.59;96.99;101595.41;5004024;28;20041;-72
2023/04/29 09:21:19;;;;;;;31.38;15.88;;;;;;;10.58;97.39;101595.53;5006082;28;20030;-72
2023/04/29 09:23:46;;;;;;;32.55;17.90;;;;;;;10.65;96.96;101599.22;5008072;28;20050;-73
2023/04/29 09:26:12;;;;;;;38.67;18.25;;;;;;;10.70;97.01;101591.88;5005026;28;20624;-72
2023/04/29 09:28:40;;;;;;;36.85;19.48;;;;;;;10.71;97.37;101598.66;4999659;28;20528;-73
2023/04/29 09:31:07;;;;;;;41.78;19.35;;;;;;;10.79;97.14;101595.38;5004297;28;20038;-73
2023/04/29 09:33:56;;;;;;;34.80;19.20;;;;;;;10.69;97.04;101604.00;5019094;28;20042;-73
2023/04/29 09:36:35;;;;;;;41.72;20.15;;;;;;;10.60;97.58;101604.81;5003796;28;20029;-72
2023/04/29 09:39:00;;;;;;;43.03;22.50;;;;;;;10.75;96.06;101607.00;5004562;28;20045;-72
2023/04/29 09:41:26;;;;;;;41.83;19.92;;;;;;;10.77;96.87;101610.28;5005124;28;20037;-72
2023/04/29 09:44:10;;;;;;;39.28;18.50;;;;;;;10.85;96.69;101607.81;5005509;28;20033;-72
2023/04/29 09:46:36;;;;;;;42.80;19.23;;;;;;;10.87;96.34;101621.47;5022807;28;20029;-72
2023/04/29 09:49:24;;;;;;;41.95;19.80;;;;;;;10.90;96.13;101613.41;5004452;28;20504;-72
2023/04/29 09:51:54;;;;;;;51.25;23.13;;;;;;;10.84;95.07;101616.56;5006565;28;20038;-72
2023/04/29 09:54:25;;;;;;;50.45;22.83;;;;;;;10.88;96.67;101618.72;5003630;28;20463;-72
2023/04/29 09:56:51;;;;;;;51.63;22.45;;;;;;;10.81;95.91;101622.00;5008163;28;20041;-72
2023/04/29 09:59:18;;;;;;;51.42;21.85;;;;;;;10.83;96.58;101633.06;5004899;28;20080;-72
2023/04/29 10:01:53;;;;;;;42.42;20.52;;;;;;;10.91;96.63;101625.44;5019637;28;20038;-73
2023/04/29 10:04:20;;;;;;;42.55;20.63;;;;;;;10.83;95.47;101635.66;5005898;28;20038;-72
2023/04/29 10:06:48;;;;;;;41.13;19.88;;;;;;;10.85;95.70;101633.75;5006744;28;20473;-72
2023/04/29 10:09:15;;;;;;;42.20;20.92;;;;;;;10.81;96.03;101634.97;5003563;28;20084;-72
2023/04/29 10:11:43;;;;;;;39.50;19.42;;;;;;;10.86;96.18;101638.81;5005287;28;20042;-72
2023/04/29 10:14:15;;;;;;;41.78;19.70;;;;;;;10.88;96.35;101649.06;5018387;28;20495;-72
2023/04/29 10:17:15;;;;;;;43.15;19.45;;;;;;;11.02;94.89;101646.03;5016331;28;20041;-73
2023/04/29 10:19:46;;;;;;;37.88;20.15;;;;;;;10.91;94.33;101652.19;5013536;28;20049;-72
2023/04/29 10:22:18;;;;;;;36.10;18.58;;;;;;;10.91;95.20;101647.00;4987194;28;20033;-72
2023/04/29 10:24:47;;;;;;;33.35;18.58;;;;;;;11.08;94.68;101644.69;5004407;28;20954;-72
2023/04/29 10:27:15;;;;;;;42.50;19.58;;;;;;;10.97;94.50;101645.63;5006398;28;20034;-72
2023/04/29 10:29:43;;;;;;;39.50;20.10;;;;;;;10.92;94.41;101655.59;5001817;28;20046;-72
2023/04/29 10:32:11;;;;;;;41.28;20.17;;;;;;;11.04;95.07;101653.69;5006086;28;20040;-71
2023/04/29 10:34:39;;;;;;;36.05;19.73;;;;;;;11.06;95.05;101650.00;5019654;28;20038;-72
2023/04/29 10:37:08;;;;;;;40.70;20.80;;;;;;;11.08;93.21;101645.50;5002745;28;20026;-72
2023/04/29 10:39:54;;;;;;;43.58;19.48;;;;;;;11.17;94.08;101653.38;5018011;28;20049;-72
2023/04/29 10:42:42;;;;;;;38.70;20.10;;;;;;;11.16;94.17;101657.75;5004565;28;20095;-72
2023/04/29 10:45:27;;;;;;;39.40;19.73;;;;;;;11.12;93.72;101655.59;5002916;28;20041;-71
2023/04/29 10:48:01;;;;;;;33.88;18.23;;;;;;;11.12;94.28;101655.59;4998875;28;20112;-72
2023/04/29 10:50:35;;;;;;;40.13;19.73;;;;;;;11.15;94.47;101650.13;5006018;28;20594;-72
2023/04/29 10:53:01;;;;;;;37.35;18.42;;;;;;;11.24;93.89;101657.06;5004663;28;20044;-72
2023/04/29 10:55:27;;;;;;;32.28;17.10;;;;;;;11.31;94.93;101660.75;5003732;28;20033;-72
2023/04/29 10:57:55;;;;;;;39.88;18.98;;;;;;;11.39;95.32;101658.25;5004172;28;20623;-72
2023/04/29 11:00:30;;;;;;;37.28;18.38;;;;;;;11.46;94.50;101661.94;5021918;28;20033;-72
2023/04/29 11:02:57;;;;;;;37.55;19.08;;;;;;;11.42;93.39;101657.19;5005060;28;20030;-72
2023/04/29 11:05:35;;;;;;;36.05;19.25;;;;;;;11.58;92.71;101653.97;5004164;28;20042;-72
2023/04/29 11:08:22;;;;;;;41.45;19.35;;;;;;;11.61;91.82;101659.72;5002673;28;20531;-72
2023/04/29 11:10:51;;;;;;;32.33;19.77;;;;;;;11.63;91.54;101662.19;5005913;28;20030;-72
2023/04/29 11:13:24;;;;;;;37.38;19.42;;;;;;;11.51;91.22;101666.72;4988933;28;20054;-73
2023/04/29 11:15:51;;;;;;;34.92;18.33;;;;;;;11.47;90.33;101667.94;5015159;28;20562;-72